Latest Weather Observations for Dunalley

IDT60901

Issued at 4:51 am EDT Friday 22 February 2019 (issued every 10 minutes, with the page automatically refreshed every 10 minutes)

About weather observations | Map of Hobart area stations | Latest observations for Hobart area | Other Formats
Station Details ID: 094254 Name: DUNALLEY (STROUD POINT) Lat: -42.90 Lon: 147.79 Height: 12.43 m
Data from the previous 72 hours. | See also: Recent months at Dunalley
Date/Time
EDT
Temp
°C
App
Temp
°C
Dew
Point
°C
Rel
Hum
%
Delta-T
°C
Wind Press
QNH
hPa
Press
MSL
hPa
Rain since
9am
mm
Dir  Spd
km/h
Gust
km/h
Spd
kts
Gust
kts
22/04:30am 12.9 10.4 6.7 66 3.0 NW 9 15 5 8 1019.7 1019.7 0.0
22/04:00am 13.4 9.9 7.0 65 3.1 NW 15 22 8 12 1020.0 1020.0 0.0
22/03:30am 13.8 9.6 7.3 65 3.2 WNW 19 26 10 14 1019.9 1019.9 0.0
22/03:00am 13.5 10.5 7.5 67 2.9 NW 13 19 7 10 1019.7 1019.7 0.0
22/02:30am 13.3 10.3 7.5 68 2.8 WNW 13 19 7 10 1019.6 1019.6 0.0
22/02:00am 13.3 10.7 7.7 69 2.7 NW 11 15 6 8 1019.8 1019.8 0.0
22/01:30am 13.9 10.5 7.7 66 3.1 WNW 15 20 8 11 1019.7 1019.7 0.0
22/01:00am 13.8 10.4 7.6 66 3.0 WNW 15 19 8 10 1019.7 1019.7 0.0
22/12:30am 14.1 10.8 7.9 66 3.1 WNW 15 20 8 11 1019.6 1019.6 0.0
22/12:00am 14.6 14.2 9.6 72 2.6 SSW 2 6 1 3 1019.8 1019.8 0.0
 
Date/Time
EDT
Temp
°C
App
Temp
°C
Dew
Point
°C
Rel
Hum
%
Delta-T
°C
Wind Press
QNH
hPa
Press
MSL
hPa
Rain since
9am
mm
Dir  Spd
km/h
Gust
km/h
Spd
kts
Gust
kts
21/11:30pm 14.7 14.0 9.9 73 2.5 SSW 4 6 2 3 1019.8 1019.8 0.0
21/11:00pm 14.7 13.5 9.7 72 2.6 SSW 6 7 3 4 1019.7 1019.7 0.0
21/10:30pm 14.6 11.7 9.8 73 2.5 SSW 15 20 8 11 1019.5 1019.5 0.0
21/10:00pm 14.9 10.8 10.1 73 2.5 SSW 22 24 12 13 1019.3 1019.3 0.0
21/09:30pm 15.0 10.5 10.0 72 2.6 SSW 24 30 13 16 1019.0 1019.0 0.0
21/09:00pm 15.1 10.2 9.9 71 2.7 SSW 26 30 14 16 1018.5 1018.5 0.0
21/08:30pm 15.9 12.0 9.3 65 3.4 SSW 20 26 11 14 1018.2 1018.2 0.0
21/08:00pm 15.9 10.8 9.3 65 3.4 SW 26 35 14 19 1017.6 1017.6 0.0
21/07:30pm 16.9 10.4 8.3 57 4.4 SW 32 35 17 19 1017.2 1017.2 0.0
21/07:00pm 16.9 11.3 8.6 58 4.2 SW 28 32 15 17 1016.9 1016.9 0.0
21/06:30pm 17.2 9.9 8.6 57 4.4 SW 37 44 20 24 1016.3 1016.3 0.0
21/06:00pm 17.1 11.7 9.5 61 4.0 SW 28 35 15 19 1016.1 1016.1 0.0
21/05:30pm 17.2 11.8 9.4 60 4.1 SW 28 33 15 18 1015.8 1015.8 0.0
21/05:00pm 17.9 12.6 9.8 59 4.3 SW 28 37 15 20 1015.5 1015.5 0.0
21/04:30pm 17.1 12.3 10.2 64 3.7 SW 26 32 14 17 1015.5 1015.5 0.0
21/04:00pm 15.7 10.2 10.5 71 2.7 S 30 35 16 19 1015.4 1015.4 0.0
21/03:30pm 16.1 10.8 11.1 72 2.7 S 30 39 16 21 1015.1 1015.1 0.0
21/03:00pm 17.2 13.6 10.6 65 3.5 SW 20 24 11 13 1014.9 1014.9 0.0
21/02:30pm 16.2 11.5 10.7 70 2.9 S 26 35 14 19 1014.9 1014.9 0.0
21/02:00pm 17.7 11.4 9.8 60 4.2 WSW 33 41 18 22 1014.7 1014.7 0.0
21/01:30pm 17.1 13.0 10.2 64 3.7 WSW 22 26 12 14 1014.4 1014.4 0.0
21/01:00pm 16.2 11.3 9.8 66 3.3 WSW 26 32 14 17 1014.3 1014.3 0.0
21/12:30pm 16.2 11.5 9.4 64 3.5 WSW 24 32 13 17 1013.7 1013.7 0.0
21/12:00pm 16.6 10.9 8.3 58 4.2 W 28 32 15 17 1013.4 1013.4 0.0
21/11:30am 15.9 9.1 7.1 56 4.3 W 32 39 17 21 1013.1 1013.1 0.0
21/11:00am 16.2 10.5 6.6 53 4.7 WNW 26 37 14 20 1012.9 1012.9 0.0
21/10:30am 15.7 9.4 5.9 52 4.7 WNW 28 39 15 21 1012.6 1012.6 0.0
21/10:00am 15.3 9.0 5.5 52 4.7 WNW 28 41 15 22 1012.3 1012.3 0.0
21/09:30am 15.2 9.2 5.1 51 4.8 NW 26 39 14 21 1012.1 1012.1 0.0
21/09:00am 15.3 8.5 5.0 50 4.9 WNW 30 41 16 22 1011.7 1011.7 0.0
21/08:30am 14.1 7.9 4.4 52 4.5 NW 26 37 14 20 1011.5 1011.5 0.0
21/08:00am 13.9 8.1 4.2 52 4.4 NW 24 33 13 18 1011.3 1011.3 0.0
21/07:30am 13.1 7.2 3.7 53 4.2 NW 24 35 13 19 1011.0 1011.0 0.0
21/07:00am 12.7 7.7 3.4 53 4.1 NW 19 28 10 15 1010.9 1010.9 0.0
21/06:30am 12.3 8.0 3.0 53 4.1 NW 15 24 8 13 1011.0 1011.0 0.0
21/06:00am 12.4 6.7 3.1 53 4.1 WNW 22 33 12 18 1010.9 1010.9 0.0
21/05:30am 12.5 7.3 3.5 54 4.0 WNW 20 30 11 16 1010.8 1010.8 0.0
21/05:00am 12.1 7.0 3.1 54 4.0 WNW 19 26 10 14 1010.6 1010.6 0.0
21/04:30am 12.2 7.1 2.9 53 4.1 WNW 19 26 10 14 1010.7 1010.7 0.0
21/04:00am 12.8 7.7 4.0 55 4.0 WNW 20 28 11 15 1010.7 1010.7 0.0
21/03:30am 13.1 8.4 3.2 51 4.4 WNW 17 28 9 15 1010.6 1010.6 0.0
21/03:00am 13.0 9.1 3.4 52 4.3 WNW 13 22 7 12 1010.6 1010.6 0.0
21/02:30am 12.8 10.0 3.2 52 4.3 NW 7 13 4 7 1010.7 1010.7 0.0
21/02:00am 12.4 8.4 3.1 53 4.1 WNW 13 17 7 9 1010.8 1010.8 0.0
21/01:30am 13.1 8.8 3.2 51 4.4 WNW 15 24 8 13 1010.8 1010.8 0.0
21/01:00am 13.0 9.0 3.1 51 4.4 NW 13 17 7 9 1010.8 1010.8 0.0
21/12:30am 13.4 9.0 2.9 49 4.7 WNW 15 24 8 13 1010.7 1010.7 0.0
21/12:00am 13.7 7.2 2.9 48 4.8 W 26 39 14 21 1010.7 1010.7 0.0
 
Date/Time
EDT
Temp
°C
App
Temp
°C
Dew
Point
°C
Rel
Hum
%
Delta-T
°C
Wind Press
QNH
hPa
Press
MSL
hPa
Rain since
9am
mm
Dir  Spd
km/h
Gust
km/h
Spd
kts
Gust
kts
20/11:30pm 13.5 8.0 2.1 46 5.0 WNW 20 30 11 16 1010.6 1010.6 0.0
20/11:00pm 13.3 6.7 2.2 47 4.8 WNW 26 37 14 20 1010.6 1010.6 0.0
20/10:30pm 13.2 8.5 3.0 50 4.5 WNW 17 28 9 15 1010.7 1010.7 0.0
20/10:00pm 13.7 7.9 2.3 46 5.0 WNW 22 30 12 16 1010.5 1010.5 0.0
20/09:30pm 14.2 9.3 2.1 44 5.3 WNW 17 24 9 13 1010.4 1010.4 0.0
20/09:00pm 15.1 7.3 5.0 51 4.8 WSW 35 44 19 24 1009.9 1009.9 0.0
20/08:30pm 14.9 7.6 7.2 60 3.8 WSW 35 43 19 23 1009.5 1009.5 0.0
20/08:00pm 15.2 6.4 8.0 62 3.6 WSW 44 52 24 28 1008.9 1008.9 0.0
20/07:51pm 15.8 8.4 8.3 61 3.8 WSW 37 52 20 28 1008.8 1008.8 0.0
20/07:30pm 15.4 10.2 7.2 58 4.0 SW 24 33 13 18 1008.7 1008.7 0.0
20/07:00pm 16.0 9.3 7.5 57 4.2 WSW 32 37 17 20 1008.2 1008.2 0.0
20/06:30pm 16.4 8.1 7.9 57 4.3 WSW 41 50 22 27 1007.4 1007.4 0.0
20/06:00pm 18.3 11.4 6.5 46 5.9 WSW 32 39 17 21 1007.2 1007.2 0.0
20/05:30pm 18.9 11.9 6.1 43 6.3 W 32 46 17 25 1006.8 1006.8 0.0
20/05:00pm 18.2 11.3 7.3 49 5.5 WSW 33 41 18 22 1006.4 1006.4 0.0
20/04:30pm 17.5 10.6 8.9 57 4.5 SW 35 48 19 26 1006.5 1006.5 0.0
20/04:00pm 18.4 11.1 8.7 53 5.0 WSW 37 48 20 26 1006.1 1006.1 0.0
20/03:31pm 18.6 12.1 8.3 51 5.3 WSW 32 50 17 27 1005.8 1005.8 0.0
20/03:30pm 18.6 12.6 8.6 52 5.2 WSW 30 44 16 24 1005.8 1005.8 0.0
20/03:00pm 18.6 14.0 9.7 56 4.7 SW 24 30 13 16 1006.0 1006.0 0.0
20/02:30pm 19.7 17.0 10.4 55 5.0 WSW 15 26 8 14 1005.9 1005.9 0.0
20/02:00pm 19.0 15.3 10.3 57 4.7 WSW 20 24 11 13 1006.0 1006.0 0.0
20/01:30pm 18.2 12.5 11.0 63 3.9 SW 32 39 17 21 1006.0 1006.0 0.0
20/01:00pm 15.9 8.1 11.3 74 2.5 SW 43 57 23 31 1005.8 1005.8 0.0
20/12:50pm 18.3 11.3 9.9 58 4.5 W 37 57 20 31 1005.5 1005.5 0.0
20/12:49pm 20.1 13.3 9.1 49 5.8 W 35 57 19 31 1005.5 1005.5 0.0
20/12:30pm 20.8 14.0 7.1 41 7.0 W 32 44 17 24 1005.3 1005.3 0.0
20/12:00pm 21.7 14.7 8.6 43 6.9 W 35 52 19 28 1005.4 1005.4 0.0
20/11:43am 20.4 12.5 7.7 44 6.5 W 39 52 21 28 1005.3 1005.3 0.0
20/11:30am 20.3 15.1 8.9 48 6.0 W 26 33 14 18 1005.6 1005.6 0.0
20/11:00am 19.8 13.6 7.9 46 6.2 WNW 30 43 16 23 1005.7 1005.7 0.0
20/10:30am 18.1 13.2 6.9 48 5.6 NW 22 37 12 20 1005.7 1005.7 0.0
20/10:00am 18.8 14.0 7.3 47 5.8 WNW 22 35 12 19 1005.8 1005.8 0.0
20/09:30am 17.7 13.1 6.6 48 5.5 WNW 20 30 11 16 1006.0 1006.0 0.0
20/09:00am 16.7 10.9 6.2 50 5.1 NW 26 39 14 21 1006.3 1006.3 0.0
20/08:30am 16.0 10.9 5.9 51 4.9 NW 22 28 12 15 1006.2 1006.2 0.0
20/08:00am 14.9 12.2 5.7 54 4.4 NW 9 19 5 10 1006.2 1006.2 0.0
20/07:30am 13.8 11.0 5.2 56 4.0 NNW 9 13 5 7 1006.2 1006.2 0.0
20/07:00am 12.9 9.3 4.8 58 3.7 NW 13 19 7 10 1006.2 1006.2 0.0
20/06:30am 12.6 9.7 4.6 58 3.7 NW 9 19 5 10 1006.5 1006.5 0.0
20/06:00am 12.9 9.2 4.3 56 3.9 NW 13 20 7 11 1006.7 1006.7 0.0
20/05:30am 12.3 9.0 4.5 59 3.5 NNW 11 17 6 9 1007.0 1007.0 0.0
20/05:00am 12.9 8.8 4.6 57 3.8 NW 15 20 8 11 1007.2 1007.2 0.0
20/04:30am 13.1 9.5 4.8 57 3.8 NW 13 20 7 11 1007.3 1007.3 0.0
20/04:00am 12.7 9.4 4.7 58 3.7 NW 11 17 6 9 1007.5 1007.5 0.0
20/03:30am 12.8 10.3 5.0 59 3.6 NW 7 17 4 9 1007.8 1007.8 0.0
20/03:00am 13.0 9.8 4.9 58 3.7 NW 11 19 6 10 1008.0 1008.0 0.0
20/02:30am 13.1 10.3 5.3 59 3.6 NW 9 13 5 7 1008.3 1008.3 0.0
20/02:00am 13.0 10.3 5.4 60 3.6 NNW 9 15 5 8 1008.5 1008.5 0.0
20/01:30am 12.6 10.4 5.1 60 3.5 N 6 9 3 5 1008.9 1008.9 0.0
20/01:00am 13.0 10.6 5.4 60 3.6 N 7 9 4 5 1009.2 1009.2 0.0
20/12:30am 12.6 9.4 5.3 61 3.4 NNW 11 15 6 8 1009.5 1009.5 0.0
20/12:00am 13.1 10.5 6.0 62 3.4 NNW 9 17 5 9 1009.6 1009.6 0.0
 
Date/Time
EDT
Temp
°C
App
Temp
°C
Dew
Point
°C
Rel
Hum
%
Delta-T
°C
Wind Press
QNH
hPa
Press
MSL
hPa
Rain since
9am
mm
Dir  Spd
km/h
Gust
km/h
Spd
kts
Gust
kts
19/11:30pm 13.9 10.9 6.0 59 3.8 NW 11 15 6 8 1009.5 1009.5 0.0
19/11:00pm 14.3 10.6 6.2 58 3.9 NW 15 20 8 11 1009.7 1009.7 0.0
19/10:30pm 14.7 10.2 6.3 57 4.0 NW 19 28 10 15 1009.7 1009.7 0.0
19/10:00pm 14.9 10.8 6.0 55 4.3 NW 17 26 9 14 1009.9 1009.9 0.0
19/09:30pm 15.4 10.9 5.9 53 4.6 WNW 19 24 10 13 1009.5 1009.5 0.0
19/09:00pm 15.7 11.9 5.6 51 4.8 WNW 15 20 8 11 1009.0 1009.0 0.0
19/08:30pm 15.4 12.7 5.6 52 4.7 W 9 13 5 7 1008.9 1008.9 0.0
19/08:00pm 16.3 12.9 7.5 56 4.4 WSW 15 20 8 11 1008.3 1008.3 0.0
19/07:30pm 16.6 12.5 8.6 59 4.1 WSW 20 24 11 13 1008.0 1008.0 0.0
19/07:00pm 17.4 12.8 5.4 45 5.8 W 19 26 10 14 1007.6 1007.6 0.0
19/06:30pm 17.8 12.0 8.1 53 5.0 WSW 28 35 15 19 1007.3 1007.3 0.0
19/06:00pm 17.6 11.9 8.2 54 4.8 SW 28 32 15 17 1007.2 1007.2 0.0
19/05:30pm 18.5 13.7 8.7 53 5.1 SW 24 30 13 16 1006.8 1006.8 0.0
19/05:00pm 17.8 11.9 7.5 51 5.2 SW 28 33 15 18 1006.8 1006.8 0.0
19/04:30pm 19.3 13.5 8.0 48 5.8 SW 28 33 15 18 1006.6 1006.6 0.0
19/04:00pm 18.3 13.0 6.8 47 5.8 SW 24 30 13 16 1006.6 1006.6 0.0
19/03:30pm 19.1 13.2 7.5 47 5.9 SW 28 33 15 18 1006.5 1006.5 0.0
19/03:00pm 18.7 12.7 7.2 47 5.8 WSW 28 35 15 19 1006.6 1006.6 0.0
19/02:30pm 17.8 10.8 6.7 48 5.5 SW 33 44 18 24 1006.3 1006.3 0.0
19/02:00pm 18.3 11.6 5.5 43 6.2 WSW 30 35 16 19 1006.3 1006.3 0.0
19/01:30pm 17.9 9.7 6.7 48 5.6 WSW 39 50 21 27 1006.0 1006.0 0.0
19/01:00pm 17.7 10.3 6.9 49 5.4 WSW 35 43 19 23 1006.0 1006.0 0.0
19/12:30pm 16.4 8.6 6.8 53 4.7 WSW 37 46 20 25 1006.1 1006.1 0.0
19/12:00pm 16.6 9.4 5.9 49 5.2 WSW 33 41 18 22 1005.9 1005.9 0.0
19/11:30am 18.5 9.8 4.3 39 6.8 W 39 48 21 26 1005.5 1005.5 0.0
19/11:00am 17.8 8.9 3.3 38 6.7 W 39 50 21 27 1005.4 1005.4 0.0
19/10:30am 17.2 9.0 4.5 43 6.0 W 37 48 20 26 1005.1 1005.1 0.0
19/10:00am 15.9 7.3 4.6 47 5.3 W 39 52 21 28 1004.9 1004.9 0.0
19/09:30am 16.1 8.1 3.9 44 5.7 W 35 50 19 27 1004.3 1004.3 0.0
19/09:00am 15.1 7.8 4.5 49 5.0 W 32 43 17 23 1004.3 1004.3 0.0
19/08:30am 14.2 6.7 4.2 51 4.6 W 33 46 18 25 1003.9 1003.9 0.0
19/08:23am 14.1 6.6 3.3 48 4.9 WNW 32 46 17 25 1003.8 1003.8 0.0
19/08:00am 13.5 8.4 3.0 49 4.7 WNW 19 26 10 14 1003.9 1003.9 0.0
19/07:30am 12.8 8.1 3.2 52 4.3 WNW 17 24 9 13 1003.8 1003.8 0.0
19/07:00am 12.9 7.2 2.7 50 4.5 NW 22 35 12 19 1003.5 1003.5 0.0
19/06:30am 12.2 7.4 2.6 52 4.2 NW 17 28 9 15 1003.5 1003.5 0.0
19/06:00am 12.1 6.7 2.6 52 4.2 NW 20 28 11 15 1003.1 1003.1 0.0
19/05:30am 12.3 6.2 2.5 51 4.3 NW 24 33 13 18 1002.9 1002.9 0.0
19/05:00am 12.5 5.2 2.4 50 4.4 WNW 30 41 16 22 1002.7 1002.7 0.0

Latest Capital City Observations: Canberra | Sydney | Melbourne | Brisbane | Adelaide | Perth | Hobart | Darwin

Other formats

Comma delimited format used in spreadsheet applications
http://www.bom.gov.au/fwo/IDT60901/IDT60901.94951.axf

JavaScript Object Notation format (JSON) in row-major order
http://www.bom.gov.au/fwo/IDT60901/IDT60901.94951.json

Data quality

Most of these data are generated automatically and are frequently updated. Quality checks on data are not normally performed. It is possible for incorrect values to appear. Refer to information at About Latest Weather Observations and please check the disclaimer before using these data.